Edwardsville, Illinois
Current Conditions -  °F | °C
As of 3:15 AM on Wednesday 22 Oct 2014 (Local Time) from KALN Reporting Station
Clear Clear  
Wind Chill: 40°   Ceiling: Unl
Heat Index: 43°   Visibility: 10mi
Dew Point: 40°   Wind: 5mph
Humidity: 87%   Direction: 70°ENE
Pressure: 30.24"   Gusts: NA
Location:  38.81°N, 89.96°W
Report Text: KALN 220815Z AUTO 07004KT 10SM CLR 06/04 A3024 RMK AO2 T00620042
Loading
Personal Weather Stations






























Interactive Weather Map
Tropical Storm Tracking
New forecast layout! Learn more

10-Day Weather Forecast

Advertisements
Track Severe Weather on mobile